createdAt,value
2023-05-02T00:00:03.348Z,19.5683
2023-05-02T00:01:07.374Z,19.6054
2023-05-02T00:02:11.439Z,19.6304
2023-05-02T00:03:15.408Z,19.5925
2023-05-02T00:04:19.383Z,19.5596
2023-05-02T00:05:23.550Z,19.5554
2023-05-02T00:06:27.504Z,19.5742
2023-05-02T00:07:31.419Z,19.6021
2023-05-02T00:08:35.330Z,19.6267
2023-05-02T00:09:39.240Z,19.5871
2023-05-02T00:10:43.140Z,19.5675
2023-05-02T00:11:47.039Z,19.5775
2023-05-02T00:12:50.938Z,19.6008
2023-05-02T00:13:54.824Z,19.6321
2023-05-02T00:14:59.490Z,19.6613
2023-05-02T00:16:03.380Z,19.6100
2023-05-02T00:17:07.338Z,19.5704
2023-05-02T00:18:11.252Z,19.5650
2023-05-02T00:19:15.150Z,19.5758
2023-05-02T00:20:19.131Z,19.6029
2023-05-02T00:21:23.034Z,19.6238
2023-05-02T00:22:26.921Z,19.5796
2023-05-02T00:23:30.814Z,19.5338
2023-05-02T00:24:34.700Z,19.5367
2023-05-02T00:25:38.596Z,19.5658
2023-05-02T00:26:42.475Z,19.6008
2023-05-02T00:27:46.378Z,19.6350
2023-05-02T00:28:50.272Z,19.6063
2023-05-02T00:29:50.732Z,19.5491
2023-05-02T00:30:54.647Z,19.5321
2023-05-02T00:31:58.556Z,19.5542
2023-05-02T00:33:02.493Z,19.5883
2023-05-02T00:34:06.358Z,19.6250
2023-05-02T00:35:10.257Z,19.6187
2023-05-02T00:36:14.152Z,19.5696
2023-05-02T00:37:18.060Z,19.5517
2023-05-02T00:38:21.934Z,19.5567
2023-05-02T00:39:25.822Z,19.5775
2023-05-02T00:40:29.810Z,19.6075
2023-05-02T00:41:33.692Z,19.6021
2023-05-02T00:42:37.606Z,19.5829
2023-05-02T00:43:41.510Z,19.5942
2023-05-02T00:44:45.407Z,19.6146
2023-05-02T00:45:49.325Z,19.6542
2023-05-02T00:46:53.386Z,19.6942
2023-05-02T00:47:57.385Z,19.6600
2023-05-02T00:49:01.319Z,19.5912
2023-05-02T00:50:05.272Z,19.5650
2023-05-02T00:51:09.165Z,19.5633
2023-05-02T00:52:13.047Z,19.5775
2023-05-02T00:53:16.964Z,19.6067
2023-05-02T00:54:20.873Z,19.6054
2023-05-02T00:55:24.791Z,19.5708
2023-05-02T00:56:28.692Z,19.5825
2023-05-02T00:57:32.601Z,19.6058
2023-05-02T00:58:36.512Z,19.6417
2023-05-02T00:59:40.444Z,19.6929
2023-05-02T01:00:44.330Z,19.6763
2023-05-02T01:01:48.286Z,19.6004
2023-05-02T01:02:52.319Z,19.5625
2023-05-02T01:03:56.350Z,19.5583
2023-05-02T01:05:00.254Z,19.5767
2023-05-02T01:06:04.254Z,19.6000
2023-05-02T01:07:08.102Z,19.6154
2023-05-02T01:08:12.127Z,19.5883
2023-05-02T01:09:16.002Z,19.5850
2023-05-02T01:10:19.899Z,19.5967
2023-05-02T01:11:23.812Z,19.6254
2023-05-02T01:12:27.708Z,19.6663
2023-05-02T01:13:31.626Z,19.6658
2023-05-02T01:14:35.520Z,19.6004
2023-05-02T01:15:39.453Z,19.5646
2023-05-02T01:16:43.408Z,19.5638
2023-05-02T01:17:47.338Z,19.5842
2023-05-02T01:18:51.219Z,19.6121
2023-05-02T01:19:55.107Z,19.6313
2023-05-02T01:20:59.001Z,19.5817
2023-05-02T01:22:02.958Z,19.5413
2023-05-02T01:23:07.206Z,19.5421
2023-05-02T01:24:11.103Z,19.5617
2023-05-02T01:25:15.010Z,19.5942
2023-05-02T01:26:18.913Z,19.6213
2023-05-02T01:27:22.831Z,19.5817
2023-05-02T01:28:26.747Z,19.5513
2023-05-02T01:29:30.658Z,19.5608
2023-05-02T01:30:34.568Z,19.5837
2023-05-02T01:31:38.593Z,19.6208
2023-05-02T01:32:42.783Z,19.6488
2023-05-02T01:33:46.667Z,19.6096
2023-05-02T01:34:50.565Z,19.5454
2023-05-02T01:35:54.525Z,19.5304
2023-05-02T01:36:58.416Z,19.5508
2023-05-02T01:38:02.333Z,19.5817
2023-05-02T01:39:06.212Z,19.6138
2023-05-02T01:40:10.133Z,19.6038
2023-05-02T01:41:14.023Z,19.5525
2023-05-02T01:42:17.942Z,19.5487
2023-05-02T01:43:21.856Z,19.5733
2023-05-02T01:44:25.729Z,19.6038
2023-05-02T01:45:29.622Z,19.6383
2023-05-02T01:46:33.577Z,19.6296
2023-05-02T01:47:37.512Z,19.5721
2023-05-02T01:48:41.416Z,19.5579
2023-05-02T01:49:45.316Z,19.5683
2023-05-02T01:50:49.239Z,19.5921
2023-05-02T01:51:53.162Z,19.6246
2023-05-02T01:52:57.093Z,19.6279
2023-05-02T01:54:00.968Z,19.5717
2023-05-02T01:55:04.866Z,19.5467
2023-05-02T01:56:08.748Z,19.5596
2023-05-02T01:57:12.650Z,19.5850
2023-05-02T01:58:16.771Z,19.6150
2023-05-02T01:59:20.649Z,19.6267
2023-05-02T02:00:24.783Z,19.5746
2023-05-02T02:01:28.699Z,19.5454
2023-05-02T02:02:32.586Z,19.5508
2023-05-02T02:03:36.578Z,19.5733
2023-05-02T02:04:40.628Z,19.6063
2023-05-02T02:05:41.605Z,19.6205
2023-05-02T02:06:45.624Z,19.5825
2023-05-02T02:07:49.896Z,19.5621
2023-05-02T02:08:53.782Z,19.5662
2023-05-02T02:09:57.805Z,19.5896
2023-05-02T02:11:01.795Z,19.6217
2023-05-02T02:12:05.712Z,19.6342
2023-05-02T02:13:09.624Z,19.5808
2023-05-02T02:14:13.536Z,19.5521
2023-05-02T02:15:17.444Z,19.5625
2023-05-02T02:16:21.416Z,19.5858
2023-05-02T02:17:25.676Z,19.6171
2023-05-02T02:18:29.851Z,19.6362
2023-05-02T02:19:33.746Z,19.5837
2023-05-02T02:20:37.644Z,19.5467
2023-05-02T02:21:41.519Z,19.5417
2023-05-02T02:22:45.646Z,19.5550
2023-05-02T02:23:49.563Z,19.5833
2023-05-02T02:24:54.405Z,19.6054
2023-05-02T02:25:58.495Z,19.5733
2023-05-02T02:27:02.388Z,19.5558
2023-05-02T02:28:06.280Z,19.5713
2023-05-02T02:29:10.184Z,19.5992
2023-05-02T02:30:14.119Z,19.6358
2023-05-02T02:31:18.093Z,19.6529
2023-05-02T02:32:21.956Z,19.5979
2023-05-02T02:33:25.840Z,19.5596
2023-05-02T02:34:29.726Z,19.5562
2023-05-02T02:35:33.615Z,19.5758
2023-05-02T02:36:37.521Z,19.6063
2023-05-02T02:37:41.404Z,19.6325
2023-05-02T02:38:45.291Z,19.5929
2023-05-02T02:39:49.174Z,19.5637
2023-05-02T02:40:53.051Z,19.5596
2023-05-02T02:41:56.937Z,19.5721
2023-05-02T02:43:00.848Z,19.6017
2023-05-02T02:44:04.726Z,19.6242
2023-05-02T02:45:09.570Z,19.5892
2023-05-02T02:46:13.489Z,19.5696
2023-05-02T02:47:17.350Z,19.5746
2023-05-02T02:48:21.233Z,19.5983
2023-05-02T02:49:25.147Z,19.6338
2023-05-02T02:50:29.025Z,19.6567
2023-05-02T02:51:32.961Z,19.6021
2023-05-02T02:52:37.095Z,19.5650
2023-05-02T02:53:41.001Z,19.5662
2023-05-02T02:54:44.928Z,19.5833
2023-05-02T02:55:49.593Z,19.6142
2023-05-02T02:56:53.485Z,19.6408
2023-05-02T02:57:57.378Z,19.6017
2023-05-02T02:59:01.272Z,19.5358
2023-05-02T03:00:05.390Z,19.5258
2023-05-02T03:01:09.300Z,19.5429
2023-05-02T03:02:13.221Z,19.5713
2023-05-02T03:03:17.169Z,19.6079
2023-05-02T03:04:21.155Z,19.5863
2023-05-02T03:05:25.667Z,19.5354
2023-05-02T03:06:29.627Z,19.5350
2023-05-02T03:07:33.626Z,19.5625
2023-05-02T03:08:37.544Z,19.5975
2023-05-02T03:09:41.454Z,19.6350
2023-05-02T03:10:45.354Z,19.6179
2023-05-02T03:11:49.267Z,19.5517
2023-05-02T03:12:53.188Z,19.5321
2023-05-02T03:13:57.097Z,19.5421
2023-05-02T03:15:01.259Z,19.5733
2023-05-02T03:16:05.181Z,19.6117
2023-05-02T03:17:09.172Z,19.6163
2023-05-02T03:18:13.083Z,19.5613
2023-05-02T03:19:17.279Z,19.5283
2023-05-02T03:20:21.167Z,19.5329
2023-05-02T03:21:25.069Z,19.5562
2023-05-02T03:22:28.954Z,19.5896
2023-05-02T03:23:32.835Z,19.6050
2023-05-02T03:24:36.710Z,19.5829
2023-05-02T03:25:40.614Z,19.5900
2023-05-02T03:26:44.514Z,19.6092
2023-05-02T03:27:48.405Z,19.6404
2023-05-02T03:28:52.396Z,19.6954
2023-05-02T03:29:56.300Z,19.6775
2023-05-02T03:31:00.326Z,19.6000
2023-05-02T03:32:04.407Z,19.5492
2023-05-02T03:33:08.417Z,19.5454
2023-05-02T03:34:12.305Z,19.5700
2023-05-02T03:35:16.196Z,19.6017
2023-05-02T03:36:20.090Z,19.6238
2023-05-02T03:37:24.003Z,19.5763
2023-05-02T03:38:27.913Z,19.5421
2023-05-02T03:39:31.824Z,19.5500
2023-05-02T03:40:35.713Z,19.5717
2023-05-02T03:41:39.595Z,19.6033
2023-05-02T03:42:43.493Z,19.6287
2023-05-02T03:43:47.376Z,19.5912
2023-05-02T03:44:51.276Z,19.5654
2023-05-02T03:45:55.154Z,19.5700
2023-05-02T03:46:59.125Z,19.5967
2023-05-02T03:48:03.135Z,19.6317
2023-05-02T03:49:07.003Z,19.6621
2023-05-02T03:50:07.411Z,19.6132
2023-05-02T03:51:11.308Z,19.5508
2023-05-02T03:52:15.198Z,19.5350
2023-05-02T03:53:19.094Z,19.5521
2023-05-02T03:54:22.984Z,19.5833
2023-05-02T03:55:26.878Z,19.6192
2023-05-02T03:56:30.749Z,19.6067
2023-05-02T03:57:34.690Z,19.5467
2023-05-02T03:58:38.546Z,19.5258
2023-05-02T03:59:42.419Z,19.5513
2023-05-02T04:00:46.316Z,19.5825
2023-05-02T04:01:50.318Z,19.6200
2023-05-02T04:02:54.548Z,19.6246
2023-05-02T04:03:58.512Z,19.5671
2023-05-02T04:05:02.391Z,19.5417
2023-05-02T04:06:06.285Z,19.5546
2023-05-02T04:07:10.170Z,19.5850
2023-05-02T04:08:14.044Z,19.6233
2023-05-02T04:09:17.929Z,19.6471
2023-05-02T04:10:21.824Z,19.5929
2023-05-02T04:11:25.790Z,19.5312
2023-05-02T04:12:29.632Z,19.5142
2023-05-02T04:13:33.523Z,19.5338
2023-05-02T04:14:37.442Z,19.5671
2023-05-02T04:15:41.351Z,19.6042
2023-05-02T04:16:45.302Z,19.5800
2023-05-02T04:17:49.264Z,19.5588
2023-05-02T04:18:53.146Z,19.5704
2023-05-02T04:19:57.037Z,19.5967
2023-05-02T04:21:00.941Z,19.6308
2023-05-02T04:22:04.869Z,19.6625
2023-05-02T04:23:04.965Z,19.6177
2023-05-02T04:24:08.872Z,19.5737
2023-05-02T04:25:12.780Z,19.5696
2023-05-02T04:26:16.689Z,19.5825
2023-05-02T04:27:20.586Z,19.6075
2023-05-02T04:28:24.531Z,19.6404
2023-05-02T04:29:28.421Z,19.6146
2023-05-02T04:30:32.325Z,19.5775
2023-05-02T04:31:36.276Z,19.5788
2023-05-02T04:32:40.277Z,19.5979
2023-05-02T04:33:44.185Z,19.6283
2023-05-02T04:34:48.051Z,19.6729
2023-05-02T04:35:52.213Z,19.6437
2023-05-02T04:36:56.117Z,19.5846
2023-05-02T04:38:00.256Z,19.5571
2023-05-02T04:39:04.173Z,19.5688
2023-05-02T04:40:08.109Z,19.5904
2023-05-02T04:41:12.007Z,19.6238
2023-05-02T04:42:15.914Z,19.6267
2023-05-02T04:43:19.822Z,19.5613
2023-05-02T04:44:23.735Z,19.5300
2023-05-02T04:45:27.873Z,19.5379
2023-05-02T04:46:31.886Z,19.5637
2023-05-02T04:47:35.824Z,19.6008
2023-05-02T04:48:39.723Z,19.6150
2023-05-02T04:49:43.621Z,19.5713
2023-05-02T04:50:47.509Z,19.5567
2023-05-02T04:51:51.407Z,19.5646
2023-05-02T04:52:55.317Z,19.5837
2023-05-02T04:53:59.235Z,19.6117
2023-05-02T04:55:03.133Z,19.6187
2023-05-02T04:56:07.013Z,19.5792
2023-05-02T04:57:11.040Z,19.5679
2023-05-02T04:58:14.964Z,19.5804
2023-05-02T04:59:18.866Z,19.6092
2023-05-02T05:00:19.268Z,19.6468
2023-05-02T05:01:23.180Z,19.6508
2023-05-02T05:02:27.302Z,19.5900
2023-05-02T05:03:31.338Z,19.5579
2023-05-02T05:04:35.232Z,19.5646
2023-05-02T05:05:39.254Z,19.5863
2023-05-02T05:06:43.259Z,19.6187
2023-05-02T05:07:47.125Z,19.6354
2023-05-02T05:08:51.011Z,19.5850
2023-05-02T05:09:54.940Z,19.5358
2023-05-02T05:10:59.125Z,19.5387
2023-05-02T05:12:03.037Z,19.5604
2023-05-02T05:13:07.183Z,19.5971
2023-05-02T05:14:11.111Z,19.6250
2023-05-02T05:15:15.008Z,19.5925
2023-05-02T05:16:18.981Z,19.5279
2023-05-02T05:17:22.920Z,19.5208
2023-05-02T05:18:26.793Z,19.5379
2023-05-02T05:19:30.681Z,19.5704
2023-05-02T05:20:34.562Z,19.6063
2023-05-02T05:23:09.552Z,19.7833
2023-05-02T05:24:11.308Z,19.6658
2023-05-02T05:25:13.017Z,19.5223
2023-05-02T05:26:14.720Z,19.4042
2023-05-02T05:27:16.481Z,19.3665
2023-05-02T05:28:18.187Z,19.3823
2023-05-02T05:29:19.900Z,19.4296
2023-05-02T05:30:21.627Z,19.4823
2023-05-02T05:31:23.348Z,19.4738
2023-05-02T05:32:25.109Z,19.4865
2023-05-02T05:33:26.907Z,19.5242
2023-05-02T05:34:28.530Z,19.5700
2023-05-02T05:35:30.248Z,19.6138
2023-05-02T05:36:31.937Z,19.6392
2023-05-02T05:37:33.653Z,19.5969
2023-05-02T05:38:35.377Z,19.5635
2023-05-02T05:39:37.111Z,19.5638
2023-05-02T05:40:38.820Z,19.5854
2023-05-02T05:41:40.542Z,19.6146
2023-05-02T05:42:42.261Z,19.6462
2023-05-02T05:43:43.970Z,19.6173
2023-05-02T05:44:45.736Z,19.5923
2023-05-02T05:45:47.440Z,19.5931
2023-05-02T05:46:50.024Z,19.6065
2023-05-02T05:47:50.921Z,19.6335
2023-05-02T05:48:52.603Z,19.6838
2023-05-02T05:49:54.321Z,19.6612
2023-05-02T05:50:56.031Z,19.6112
2023-05-02T05:51:57.762Z,19.5962
2023-05-02T05:52:59.482Z,19.6104
2023-05-02T05:54:01.191Z,19.6362
2023-05-02T05:55:02.885Z,19.6746
2023-05-02T05:56:04.609Z,19.6908
2023-05-02T05:57:06.339Z,19.6258
2023-05-02T05:58:08.060Z,19.5973
2023-05-02T05:59:09.784Z,19.6004
2023-05-02T06:00:11.503Z,19.6188
2023-05-02T06:01:13.215Z,19.6554
2023-05-02T06:02:15.001Z,19.7008
2023-05-02T06:03:16.705Z,19.6596
2023-05-02T06:04:18.367Z,19.5931
2023-05-02T06:05:20.105Z,19.5738
2023-05-02T06:06:21.894Z,19.5835
2023-05-02T06:07:23.533Z,19.6069
2023-05-02T06:08:25.264Z,19.6462
2023-05-02T06:09:26.979Z,19.6681
2023-05-02T06:10:28.787Z,19.6085
2023-05-02T06:11:30.415Z,19.5515
2023-05-02T06:12:32.139Z,19.5465
2023-05-02T06:13:33.854Z,19.5677
2023-05-02T06:14:35.586Z,19.6058
2023-05-02T06:15:37.365Z,19.6427
2023-05-02T06:16:39.128Z,19.6354
2023-05-02T06:17:40.747Z,19.5715
2023-05-02T06:18:42.428Z,19.5381
2023-05-02T06:19:44.151Z,19.5481
2023-05-02T06:20:45.892Z,19.5819
2023-05-02T06:21:47.619Z,19.6154
2023-05-02T06:22:49.338Z,19.6419
2023-05-02T06:23:51.053Z,19.6035
2023-05-02T06:24:52.768Z,19.5723
2023-05-02T06:25:54.494Z,19.5746
2023-05-02T06:26:56.231Z,19.5915
2023-05-02T06:27:57.939Z,19.6188
2023-05-02T06:28:59.664Z,19.6519
2023-05-02T06:30:01.623Z,19.6292
2023-05-02T06:31:03.190Z,19.6069
2023-05-02T06:32:04.874Z,19.6165
2023-05-02T06:33:06.584Z,19.6400
2023-05-02T06:34:08.246Z,19.6765
2023-05-02T06:35:09.992Z,19.7346
2023-05-02T06:36:11.661Z,19.6985
2023-05-02T06:37:13.391Z,19.6158
2023-05-02T06:38:15.106Z,19.5846
2023-05-02T06:39:16.827Z,19.5919
2023-05-02T06:40:18.537Z,19.6123
2023-05-02T06:41:20.299Z,19.6477
2023-05-02T06:42:21.986Z,19.6773
2023-05-02T06:43:23.710Z,19.6227
2023-05-02T06:44:25.469Z,19.5550
2023-05-02T06:45:27.165Z,19.5392
2023-05-02T06:46:28.895Z,19.5550
2023-05-02T06:47:30.701Z,19.5850
2023-05-02T06:48:32.319Z,19.6215
2023-05-02T06:49:34.032Z,19.6246
2023-05-02T06:50:35.775Z,19.5758
2023-05-02T06:51:37.503Z,19.5623
2023-05-02T06:52:39.205Z,19.5785
2023-05-02T06:53:40.970Z,19.6019
2023-05-02T06:54:42.659Z,19.6350
2023-05-02T06:55:44.379Z,19.6585
2023-05-02T06:56:46.111Z,19.6050
2023-05-02T06:57:47.822Z,19.5665
2023-05-02T06:58:49.556Z,19.5681
2023-05-02T06:59:51.308Z,19.5862
2023-05-02T07:00:53.005Z,19.6208
2023-05-02T07:01:54.717Z,19.6562
2023-05-02T07:02:56.487Z,19.6285
2023-05-02T07:03:58.196Z,19.5885
2023-05-02T07:04:59.883Z,19.5835
2023-05-02T07:06:01.684Z,19.5985
2023-05-02T07:07:03.333Z,19.6242
2023-05-02T07:08:05.053Z,19.6646
2023-05-02T07:09:06.784Z,19.6573
2023-05-02T07:10:08.505Z,19.6088
2023-05-02T07:11:10.241Z,19.6062
2023-05-02T07:12:11.935Z,19.6177
2023-05-02T07:13:13.653Z,19.6412
2023-05-02T07:14:15.378Z,19.6800
2023-05-02T07:15:17.065Z,19.6931
2023-05-02T07:16:18.846Z,19.6277
2023-05-02T07:17:20.540Z,19.5985
2023-05-02T07:18:22.236Z,19.5973
2023-05-02T07:19:23.954Z,19.6138
2023-05-02T07:20:25.743Z,19.6450
2023-05-02T07:21:27.419Z,19.7065
2023-05-02T07:22:29.115Z,19.8288
2023-05-02T07:23:30.847Z,19.9019
2023-05-02T07:24:32.568Z,19.9688
2023-05-02T07:25:34.279Z,20.0292
2023-05-02T07:26:35.996Z,20.0746
2023-05-02T07:27:37.742Z,20.1023
2023-05-02T07:28:39.453Z,20.1177
2023-05-02T07:29:41.183Z,20.1308
2023-05-02T07:30:42.891Z,20.1404
2023-05-02T07:31:44.668Z,20.1508
2023-05-02T07:32:46.393Z,20.1608
2023-05-02T07:33:48.065Z,20.1700
2023-05-02T07:34:49.758Z,20.1846
2023-05-02T07:35:51.485Z,20.1965
2023-05-02T07:36:53.203Z,20.2127
2023-05-02T07:37:54.997Z,20.2246
2023-05-02T07:38:57.448Z,20.2367
2023-05-02T07:40:01.598Z,20.2567
2023-05-02T07:41:05.779Z,20.2575
2023-05-02T07:42:09.674Z,20.2604
2023-05-02T07:43:13.563Z,20.2687
2023-05-02T07:44:17.438Z,20.2829
2023-05-02T07:45:21.492Z,20.2983
2023-05-02T07:46:25.554Z,20.3000
2023-05-02T07:47:33.434Z,20.3075
2023-05-02T07:48:32.029Z,20.3168
2023-05-02T07:49:35.907Z,20.3171
2023-05-02T07:50:39.823Z,20.3204
2023-05-02T07:51:44.581Z,20.3213
2023-05-02T07:52:48.875Z,20.3296
2023-05-02T07:53:52.278Z,20.3364
2023-05-02T07:54:56.181Z,20.3462
2023-05-02T07:56:00.134Z,20.3571
2023-05-02T07:57:04.148Z,20.3621
2023-05-02T07:58:08.041Z,20.3700
2023-05-02T07:59:12.176Z,20.3800
2023-05-02T08:00:16.135Z,20.3862
2023-05-02T08:01:20.027Z,20.3913
2023-05-02T08:02:25.852Z,20.3913
2023-05-02T08:03:24.800Z,20.3909
2023-05-02T08:04:30.610Z,20.3925
2023-05-02T08:05:29.297Z,20.3964
2023-05-02T08:06:33.252Z,20.4025
2023-05-02T08:07:37.390Z,20.4004
2023-05-02T08:08:41.330Z,20.4042
2023-05-02T08:09:45.243Z,20.4129
2023-05-02T08:10:49.281Z,20.4075
2023-05-02T08:11:53.178Z,20.4121
2023-05-02T08:12:59.384Z,20.4179
2023-05-02T08:13:58.490Z,20.4236
2023-05-02T08:14:58.916Z,20.3791
2023-05-02T08:16:02.914Z,20.2033
2023-05-02T08:17:06.790Z,20.0179
2023-05-02T08:18:10.804Z,19.8100
2023-05-02T08:19:14.726Z,19.6821
2023-05-02T08:20:18.596Z,19.6287
2023-05-02T08:21:22.517Z,19.6238
2023-05-02T08:22:26.390Z,19.6275
2023-05-02T08:23:30.308Z,19.6121
2023-05-02T08:24:34.210Z,19.6150
2023-05-02T08:25:38.156Z,19.6338
2023-05-02T08:26:42.073Z,19.6704
2023-05-02T08:27:45.987Z,19.7383
2023-05-02T08:28:49.890Z,19.7488
2023-05-02T08:29:53.839Z,19.6646
2023-05-02T08:30:57.724Z,19.6067
2023-05-02T08:32:01.728Z,19.5996
2023-05-02T08:33:05.706Z,19.6112
2023-05-02T08:34:09.614Z,19.6362
2023-05-02T08:35:13.493Z,19.6763
2023-05-02T08:36:17.378Z,19.6492
2023-05-02T08:37:21.301Z,19.6050
2023-05-02T08:38:25.186Z,19.5967
2023-05-02T08:39:29.082Z,19.6079
2023-05-02T08:40:41.571Z,19.6321
2023-05-02T08:41:37.461Z,19.6809
2023-05-02T08:42:41.375Z,19.6650
2023-05-02T08:43:45.406Z,19.6071
2023-05-02T08:44:49.298Z,19.5833
2023-05-02T08:45:53.202Z,19.5954
2023-05-02T08:46:57.160Z,19.6208
2023-05-02T08:48:01.146Z,19.6567
2023-05-02T08:49:05.015Z,19.6779
2023-05-02T08:50:09.188Z,19.6213
2023-05-02T08:51:13.087Z,19.5817
2023-05-02T08:52:16.995Z,19.5812
2023-05-02T08:53:20.927Z,19.5983
2023-05-02T08:54:25.025Z,19.6283
2023-05-02T08:55:28.946Z,19.6633
2023-05-02T08:56:32.868Z,19.6242
2023-05-02T08:57:37.097Z,19.5975
2023-05-02T08:58:41.046Z,19.6017
2023-05-02T08:59:44.910Z,19.6171
2023-05-02T09:00:48.831Z,19.6479
2023-05-02T09:01:52.723Z,19.6808
2023-05-02T09:02:56.636Z,19.6400
2023-05-02T09:04:00.609Z,19.5933
2023-05-02T09:05:04.514Z,19.5883
2023-05-02T09:06:08.432Z,19.6008
2023-05-02T09:07:12.328Z,19.6250
2023-05-02T09:08:16.213Z,19.6633
2023-05-02T09:09:20.127Z,19.6450
2023-05-02T09:10:24.039Z,19.6004
2023-05-02T09:11:27.991Z,19.5925
2023-05-02T09:12:32.087Z,19.6112
2023-05-02T09:13:35.996Z,19.6371
2023-05-02T09:14:39.875Z,19.6829
2023-05-02T09:15:43.781Z,19.6808
2023-05-02T09:16:47.793Z,19.6121
2023-05-02T09:17:51.982Z,19.5912
2023-05-02T09:18:55.918Z,19.5996
2023-05-02T09:19:59.936Z,19.6196
2023-05-02T09:21:03.849Z,19.6546
2023-05-02T09:22:07.768Z,19.6758
2023-05-02T09:23:11.682Z,19.6125
2023-05-02T09:24:15.614Z,19.5842
2023-05-02T09:25:19.753Z,19.5950
2023-05-02T09:26:23.675Z,19.6150
2023-05-02T09:27:27.532Z,19.6496
2023-05-02T09:28:31.430Z,19.6829
2023-05-02T09:29:35.349Z,19.6346
2023-05-02T09:30:39.296Z,19.5912
2023-05-02T09:31:55.616Z,19.5863
2023-05-02T09:32:47.748Z,19.6082
2023-05-02T09:33:51.640Z,19.6379
2023-05-02T09:34:55.552Z,19.6842
2023-05-02T09:35:59.438Z,19.6513
2023-05-02T09:37:03.363Z,19.5846
2023-05-02T09:38:07.231Z,19.5667
2023-05-02T09:39:11.132Z,19.5808
2023-05-02T09:40:15.065Z,19.6017
2023-05-02T09:41:18.945Z,19.6342
2023-05-02T09:42:22.858Z,19.6458
2023-05-02T09:43:26.755Z,19.5992
2023-05-02T09:44:30.752Z,19.5879
2023-05-02T09:45:35.362Z,19.6038
2023-05-02T09:46:39.404Z,19.6325
2023-05-02T09:47:43.304Z,19.6775
2023-05-02T09:48:47.162Z,19.6983
2023-05-02T09:49:51.069Z,19.6262
2023-05-02T09:50:54.989Z,19.5742
2023-05-02T09:51:58.890Z,19.5688
2023-05-02T09:53:02.928Z,19.5908
2023-05-02T09:54:06.925Z,19.6196
2023-05-02T09:55:10.789Z,19.6500
2023-05-02T09:56:14.710Z,19.6196
2023-05-02T09:57:18.643Z,19.5754
2023-05-02T09:58:22.535Z,19.5729
2023-05-02T09:59:26.425Z,19.5921
2023-05-02T10:00:30.347Z,19.6208
2023-05-02T10:01:34.269Z,19.6617
2023-05-02T10:02:38.258Z,19.6367
2023-05-02T10:03:42.187Z,19.5763
2023-05-02T10:04:46.144Z,19.5579
2023-05-02T10:05:50.071Z,19.5737
2023-05-02T10:06:53.978Z,19.6012
2023-05-02T10:07:57.893Z,19.6413
2023-05-02T10:09:01.817Z,19.6437
2023-05-02T10:10:05.733Z,19.5929
2023-05-02T10:11:09.633Z,19.5821
2023-05-02T10:12:13.564Z,19.5967
2023-05-02T10:13:17.475Z,19.6233
2023-05-02T10:14:21.491Z,19.6700
2023-05-02T10:15:25.374Z,19.6804
2023-05-02T10:16:29.290Z,19.6258
2023-05-02T10:17:33.550Z,19.6067
2023-05-02T10:18:37.458Z,19.6079
2023-05-02T10:19:41.370Z,19.6237
2023-05-02T10:20:45.257Z,19.6546
2023-05-02T10:21:49.178Z,19.6612
2023-05-02T10:22:53.100Z,19.6175
2023-05-02T10:23:56.993Z,19.6075
2023-05-02T10:25:01.201Z,19.6163
2023-05-02T10:26:05.365Z,19.6408
2023-05-02T10:27:09.295Z,19.6858
2023-05-02T10:28:13.194Z,19.6846
2023-05-02T10:29:17.145Z,19.6171
2023-05-02T10:30:21.039Z,19.5900
2023-05-02T10:31:24.960Z,19.5979
2023-05-02T10:32:29.219Z,19.6204
2023-05-02T10:33:33.125Z,19.6608
2023-05-02T10:34:36.988Z,19.6875
2023-05-02T10:35:40.959Z,19.6238
2023-05-02T10:36:44.826Z,19.5837
2023-05-02T10:37:48.896Z,19.5867
2023-05-02T10:38:52.792Z,19.6038
2023-05-02T10:39:56.693Z,19.6342
2023-05-02T10:41:00.576Z,19.6658
2023-05-02T10:42:04.488Z,19.6292
2023-05-02T10:43:08.414Z,19.5987
2023-05-02T10:44:12.323Z,19.6008
2023-05-02T10:45:16.234Z,19.6217
2023-05-02T10:46:20.189Z,19.6592
2023-05-02T10:47:24.152Z,19.7000
2023-05-02T10:48:28.104Z,19.6504
2023-05-02T10:49:32.029Z,19.5825
2023-05-02T10:50:36.138Z,19.5658
2023-05-02T10:51:40.044Z,19.5812
2023-05-02T10:52:43.951Z,19.6063
2023-05-02T10:53:47.893Z,19.6450
2023-05-02T10:54:51.810Z,19.6413
2023-05-02T10:55:55.717Z,19.5867
2023-05-02T10:56:59.625Z,19.5717
2023-05-02T10:58:03.529Z,19.5842
2023-05-02T10:59:07.435Z,19.6100
2023-05-02T11:00:07.632Z,19.6432
2023-05-02T11:01:11.587Z,19.6583
2023-05-02T11:02:15.708Z,19.6017
2023-05-02T11:03:19.642Z,19.5804
2023-05-02T11:04:23.532Z,19.5904
2023-05-02T11:05:27.399Z,19.6129
2023-05-02T11:06:31.323Z,19.6483
2023-05-02T11:07:35.234Z,19.6683
2023-05-02T11:08:39.167Z,19.6171
2023-05-02T11:09:43.056Z,19.5904
2023-05-02T11:10:46.986Z,19.5979
2023-05-02T11:11:50.899Z,19.6225
2023-05-02T11:12:54.797Z,19.6588
2023-05-02T11:13:58.698Z,19.6892
2023-05-02T11:15:02.790Z,19.6375
2023-05-02T11:16:06.920Z,19.5925
2023-05-02T11:17:10.786Z,19.5871
2023-05-02T11:18:14.811Z,19.6046
2023-05-02T11:19:18.678Z,19.6329
2023-05-02T11:20:22.549Z,19.6750
2023-05-02T11:21:26.442Z,19.6383
2023-05-02T11:22:30.350Z,19.5837
2023-05-02T11:23:34.219Z,19.5729
2023-05-02T11:24:38.142Z,19.5883
2023-05-02T11:25:42.098Z,19.6138
2023-05-02T11:26:45.978Z,19.6542
2023-05-02T11:27:49.917Z,19.6367
2023-05-02T11:28:53.809Z,19.5942
2023-05-02T11:29:57.723Z,19.5863
2023-05-02T11:31:01.614Z,19.6046
2023-05-02T11:32:05.554Z,19.6342
2023-05-02T11:33:09.470Z,19.6771
2023-05-02T11:34:13.333Z,19.6746
2023-05-02T11:35:17.228Z,19.6075
2023-05-02T11:36:21.147Z,19.5821
2023-05-02T11:37:25.049Z,19.5971
2023-05-02T11:38:28.992Z,19.6183
2023-05-02T11:39:32.890Z,19.6571
2023-05-02T11:40:36.799Z,19.6783
2023-05-02T11:41:40.724Z,19.6146
2023-05-02T11:42:44.632Z,19.5867
2023-05-02T11:43:48.542Z,19.5908
2023-05-02T11:44:52.461Z,19.6125
2023-05-02T11:45:56.463Z,19.6413
2023-05-02T11:47:00.385Z,19.6767
2023-05-02T11:48:04.349Z,19.6254
2023-05-02T11:49:09.334Z,19.5921
2023-05-02T11:50:08.754Z,19.5968
2023-05-02T11:51:12.680Z,19.6133
2023-05-02T11:52:16.607Z,19.6429
2023-05-02T11:53:20.512Z,19.6812
2023-05-02T11:54:24.434Z,19.6425
2023-05-02T11:55:28.580Z,19.5946
2023-05-02T11:56:32.467Z,19.5837
2023-05-02T11:57:36.437Z,19.5996
2023-05-02T11:58:40.347Z,19.6279
2023-05-02T11:59:44.259Z,19.6717
2023-05-02T12:00:48.179Z,19.6488
2023-05-02T12:01:52.086Z,19.5942
2023-05-02T12:02:56.186Z,19.5837
2023-05-02T12:04:00.140Z,19.5967
2023-05-02T12:05:04.331Z,19.6213
2023-05-02T12:06:08.516Z,19.6617
2023-05-02T12:07:12.523Z,19.6575
2023-05-02T12:08:16.397Z,19.6058
2023-05-02T12:09:20.299Z,19.5967
2023-05-02T12:10:24.190Z,19.6054
2023-05-02T12:11:28.060Z,19.6300
2023-05-02T12:12:31.975Z,19.6688
2023-05-02T12:13:35.896Z,19.6758
2023-05-02T12:14:39.802Z,19.6087
2023-05-02T12:15:43.737Z,19.5742
2023-05-02T12:16:47.833Z,19.5796
2023-05-02T12:17:51.834Z,19.6050
2023-05-02T12:18:55.715Z,19.6437
2023-05-02T12:19:59.876Z,19.6708
2023-05-02T12:21:03.768Z,19.6171
2023-05-02T12:22:07.673Z,19.5604
2023-05-02T12:23:11.577Z,19.5562
2023-05-02T12:24:15.484Z,19.5821
2023-05-02T12:25:19.384Z,19.6192
2023-05-02T12:26:23.317Z,19.6558
2023-05-02T12:27:27.238Z,19.6296
2023-05-02T12:28:31.145Z,19.5754
2023-05-02T12:29:35.050Z,19.5629
2023-05-02T12:30:38.969Z,19.5763
2023-05-02T12:31:42.877Z,19.6012
2023-05-02T12:32:46.761Z,19.6333
2023-05-02T12:33:50.762Z,19.6371
2023-05-02T12:34:54.903Z,19.6300
2023-05-02T12:35:58.811Z,19.6417
2023-05-02T12:37:02.747Z,19.6737
2023-05-02T12:38:06.705Z,19.7337
2023-05-02T12:39:10.600Z,19.7942
2023-05-02T12:40:14.666Z,19.7342
2023-05-02T12:41:18.570Z,19.6354
2023-05-02T12:42:22.460Z,19.6079
2023-05-02T12:43:26.583Z,19.6096
2023-05-02T12:44:30.436Z,19.6271
2023-05-02T12:45:34.358Z,19.6604
2023-05-02T12:46:38.253Z,19.6683
2023-05-02T12:47:42.199Z,19.6092
2023-05-02T12:48:46.838Z,19.5921